Time;durP1;ratioP1;P1;durP2;ratioP2;P2;SDS_P1;SDS_P2;PMS_P1;PMS_P2;Temp;Humidity;BMP_temperature;BMP_pressure;BME280_temperature;BME280_humidity;BME280_pressure;Samples;Min_cycle;Max_cycle;Signal;HPM_P1;HPM_P2
2023/10/21 00:01:07;;;;;;;;;4.00;3.00;;;;;-143.90;82.92;72516.50;5001096;28;105839;-76
2023/10/21 00:03:34;;;;;;;;;5.00;4.00;;;;;-143.90;82.15;72510.28;4994555;28;101758;-76
2023/10/21 00:06:01;;;;;;;;;5.00;4.00;;;;;-143.90;83.36;72510.28;4996673;28;103346;-77
2023/10/21 00:08:28;;;;;;;;;5.67;4.33;;;;;-143.90;83.37;72510.28;4999272;27;101994;-77
2023/10/21 00:11:04;;;;;;;;;3.00;3.00;;;;;-143.90;83.52;72516.50;4995052;28;102004;-75
2023/10/21 00:13:32;;;;;;;;;5.00;4.33;;;;;-143.90;82.70;72514.44;4999682;27;101552;-76
2023/10/21 00:15:58;;;;;;;;;6.67;5.00;;;;;-143.90;83.51;72518.56;4995463;27;103526;-77
2023/10/21 00:18:25;;;;;;;;;8.33;6.33;;;;;-143.90;84.51;72518.56;5001893;27;101833;-76
2023/10/21 00:20:54;;;;;;;;;7.00;6.00;;;;;-143.90;84.27;72522.69;4997198;27;101784;-76
2023/10/21 00:23:21;;;;;;;;;7.00;5.00;;;;;-143.90;83.19;72524.75;5000134;28;101934;-76
2023/10/21 00:25:48;;;;;;;;;3.33;3.00;;;;;-143.90;83.09;72522.69;4998222;27;108489;-77
2023/10/21 00:28:15;;;;;;;;;4.67;4.00;;;;;-143.90;82.99;72516.50;4993975;28;101720;-77
2023/10/21 00:30:45;;;;;;;;;4.00;4.00;;;;;-143.90;82.66;72502.03;5002599;27;101959;-76
2023/10/21 00:33:13;;;;;;;;;3.67;3.00;;;;;-143.90;82.53;72504.09;4992653;28;101792;-77
2023/10/21 00:35:44;;;;;;;;;5.00;4.00;;;;;-143.90;82.92;72504.09;4997673;27;103550;-78
2023/10/21 00:38:11;;;;;;;;;3.00;2.33;;;;;-143.90;82.74;72493.78;4992594;28;101467;-76
2023/10/21 00:40:38;;;;;;;;;4.67;3.00;;;;;-143.90;82.65;72493.78;4995117;27;101892;-77
2023/10/21 00:43:05;;;;;;;;;3.33;2.67;;;;;-143.90;82.54;72502.03;4993497;28;102650;-77
2023/10/21 00:45:31;;;;;;;;;2.00;2.00;;;;;-143.90;82.83;72502.03;4997017;27;103617;-75
2023/10/21 00:47:58;;;;;;;;;2.00;2.00;;;;;-143.90;82.06;72493.78;4996017;27;101805;-76
2023/10/21 00:50:25;;;;;;;;;2.00;2.00;;;;;-143.90;81.91;72491.69;4996450;27;101744;-78
2023/10/21 00:52:52;;;;;;;;;2.67;2.00;;;;;-143.90;81.68;72483.44;5002491;27;102622;-76
2023/10/21 00:55:19;;;;;;;;;2.00;2.00;;;;;-143.90;81.32;72468.97;4983597;28;103818;-76
2023/10/21 00:57:46;;;;;;;;;2.00;2.00;;;;;-143.90;81.58;72462.78;4999814;27;101508;-77
2023/10/21 01:00:13;;;;;;;;;2.00;2.00;;;;;-143.90;81.96;72460.72;4992873;27;101832;-77
2023/10/21 01:02:42;;;;;;;;;1.00;1.00;;;;;-143.90;81.03;72460.72;4980031;28;102305;-75
2023/10/21 01:05:09;;;;;;;;;1.67;1.00;;;;;-143.90;81.97;72471.03;4972584;28;103375;-76
2023/10/21 01:07:35;;;;;;;;;1.33;1.00;;;;;-143.90;82.71;72477.25;4997961;27;101989;-76
2023/10/21 01:10:07;;;;;;;;;2.00;1.33;;;;;-143.90;82.20;72471.03;4995019;28;101818;-76
2023/10/21 01:12:34;;;;;;;;;2.00;2.00;;;;;-143.90;82.47;72468.97;4996511;27;103286;-76
2023/10/21 01:15:00;;;;;;;;;1.00;1.00;;;;;-143.90;81.63;72468.97;4981723;28;103369;-77
2023/10/21 01:17:27;;;;;;;;;1.00;1.00;;;;;-143.90;82.20;72481.38;4992284;28;102251;-76
2023/10/21 01:19:57;;;;;;;;;1.00;1.00;;;;;-143.90;82.52;72481.38;4995930;28;101696;-74
2023/10/21 01:22:24;;;;;;;;;6.00;6.00;;;;;-143.90;85.03;72502.03;4994442;27;103256;-75
2023/10/21 01:24:51;;;;;;;;;8.00;5.67;;;;;-143.90;85.59;72510.28;4993551;27;109476;-76
2023/10/21 01:27:17;;;;;;;;;7.00;5.00;;;;;-143.90;85.69;72526.81;4995421;28;101931;-76
2023/10/21 01:29:44;;;;;;;;;4.00;3.33;;;;;-143.90;84.97;72530.97;4993576;28;101570;-75
2023/10/21 01:32:11;;;;;;;;;5.00;4.00;;;;;-143.90;85.03;72537.16;4993898;27;101457;-76
2023/10/21 01:34:37;;;;;;;;;3.00;2.00;;;;;-143.90;85.11;72545.41;4991478;27;103349;-76
2023/10/21 01:37:04;;;;;;;;;3.00;2.33;;;;;-143.90;86.53;72555.75;5001180;27;101567;-76
2023/10/21 01:39:32;;;;;;;;;3.33;2.67;;;;;-143.90;87.29;72568.16;4993267;27;101995;-76
2023/10/21 01:41:59;;;;;;;;;3.33;3.00;;;;;-143.90;86.82;72576.41;4993783;27;101831;-77
2023/10/21 01:44:25;;;;;;;;;3.00;2.33;;;;;-143.90;86.53;72580.53;4994567;28;103389;-77
2023/10/21 01:46:52;;;;;;;;;4.00;2.67;;;;;-143.90;86.54;72588.81;4997011;28;101507;-77
2023/10/21 01:49:18;;;;;;;;;2.00;2.00;;;;;-143.90;86.93;72590.88;4993657;28;101644;-76
2023/10/21 01:51:45;;;;;;;;;4.00;3.67;;;;;-143.90;86.11;72595.00;4998133;28;101979;-77
2023/10/21 01:54:11;;;;;;;;;3.33;3.00;;;;;-143.90;87.14;72588.81;5000497;27;103288;-76
2023/10/21 01:56:38;;;;;;;;;2.00;2.00;;;;;-143.90;88.85;72597.06;4993501;28;102155;-76
2023/10/21 01:59:06;;;;;;;;;2.33;2.33;;;;;-143.90;90.67;72611.53;5000414;27;101743;-76
2023/10/21 02:01:32;;;;;;;;;3.00;2.00;;;;;-143.90;92.19;72626.00;4996947;28;102190;-77
2023/10/21 02:03:59;;;;;;;;;2.00;2.00;;;;;-143.90;92.47;72646.66;5000500;27;103312;-76
2023/10/21 02:06:26;;;;;;;;;4.67;4.00;;;;;-143.90;91.76;72661.13;4992252;28;101699;-76
2023/10/21 02:08:53;;;;;;;;;2.33;2.00;;;;;-143.90;91.44;72667.31;4997747;28;101955;-76
2023/10/21 02:11:22;;;;;;;;;3.67;2.33;;;;;-143.90;93.01;72671.44;5001491;28;102025;-77
2023/10/21 02:13:48;;;;;;;;;2.00;2.00;;;;;-143.90;94.02;72677.66;4995376;28;108053;-76
2023/10/21 02:16:15;;;;;;;;;8.33;6.00;;;;;-143.90;96.48;72692.09;5000967;28;101545;-76
2023/10/21 02:18:42;;;;;;;;;9.33;7.33;;;;;-143.90;98.60;72716.91;4990730;28;101838;-76
2023/10/21 02:21:09;;;;;;;;;6.33;6.00;;;;;-143.90;98.46;72716.91;5003330;27;102113;-76
2023/10/21 02:23:35;;;;;;;;;7.67;7.00;;;;;-143.90;100.00;72725.16;4995328;28;103545;-76
2023/10/21 02:26:04;;;;;;;;;9.33;7.33;;;;;-143.90;100.00;72745.84;4997985;28;101819;-77
2023/10/21 02:28:31;;;;;;;;;9.00;7.67;;;;;-143.90;100.00;72747.91;4996143;28;101746;-76
2023/10/21 02:31:01;;;;;;;;;6.00;6.00;;;;;-143.90;100.00;72754.09;4997832;28;101790;-76
2023/10/21 02:33:27;;;;;;;;;9.67;8.00;;;;;-143.90;100.00;72776.81;4996557;28;103574;-76
2023/10/21 02:35:55;;;;;;;;;10.00;8.00;;;;;-143.90;100.00;72785.09;4995194;28;101588;-76
2023/10/21 02:38:22;;;;;;;;;6.67;6.67;;;;;-143.90;100.00;72787.16;5002941;28;101784;-77
2023/10/21 02:40:49;;;;;;;;;6.33;6.00;;;;;-143.90;100.00;72793.34;4987702;28;101597;-76
2023/10/21 02:43:16;;;;;;;;;6.00;6.00;;;;;-143.90;100.00;72791.28;4997417;27;103673;-75
2023/10/21 02:45:43;;;;;;;;;7.33;4.00;;;;;-143.90;100.00;72795.41;4994721;27;102218;-77
2023/10/21 02:48:10;;;;;;;;;0.00;0.00;;;;;-143.90;100.00;72801.63;4998518;27;102634;-76
2023/10/21 02:50:36;;;;;;;;;8.33;7.67;;;;;-143.90;100.00;72809.88;4996645;28;101615;-76
2023/10/21 02:53:03;;;;;;;;;16.50;16.25;;;;;-143.90;100.00;72832.59;4996354;27;103004;-76
2023/10/21 02:55:30;;;;;;;;;18.50;16.50;;;;;-143.90;100.00;72832.59;4998613;27;101800;-76
2023/10/21 02:57:56;;;;;;;;;15.75;14.75;;;;;-143.90;100.00;72836.75;4993075;27;102284;-76
2023/10/21 03:00:23;;;;;;;;;11.00;10.00;;;;;-143.90;100.00;72845.00;5006285;27;102015;-76
2023/10/21 03:02:50;;;;;;;;;8.00;8.00;;;;;-143.90;100.00;72853.28;4998001;27;108075;-76
2023/10/21 03:05:18;;;;;;;;;6.00;6.00;;;;;-143.90;100.00;72857.41;5003698;27;101824;-77
2023/10/21 03:07:44;;;;;;;;;7.00;5.67;;;;;-143.90;100.00;72863.59;4996477;27;101997;-76
2023/10/21 03:10:11;;;;;;;;;10.00;7.00;;;;;-143.90;100.00;72869.81;5003467;27;102379;-76
2023/10/21 03:12:38;;;;;;;;;14.00;9.50;;;;;-143.90;100.00;72869.81;4997652;27;103092;-77
2023/10/21 03:15:07;;;;;;;;;10.00;8.00;;;;;-143.90;100.00;72878.06;4997752;27;101669;-76
2023/10/21 03:17:34;;;;;;;;;11.25;10.75;;;;;-143.90;100.00;72890.47;5002425;27;102036;-76
2023/10/21 03:20:00;;;;;;;;;21.75;20.50;;;;;-143.90;100.00;72913.19;4997416;28;101994;-76
2023/10/21 03:22:27;;;;;;;;;27.00;24.00;;;;;-143.90;100.00;72925.59;5002766;28;103427;-77
2023/10/21 03:24:53;;;;;;;;;20.75;18.75;;;;;-143.90;100.00;72940.06;4996875;28;101981;-74
2023/10/21 03:27:20;;;;;;;;;15.00;14.25;;;;;-143.90;100.00;72944.19;5003467;27;101555;-77
2023/10/21 03:29:47;;;;;;;;;12.75;11.25;;;;;-143.90;100.00;72952.44;5000653;27;101572;-77
2023/10/21 03:32:14;;;;;;;;;12.00;11.75;;;;;-143.90;100.00;72954.50;5000801;27;102899;-77
2023/10/21 03:34:40;;;;;;;;;12.00;12.00;;;;;-143.90;100.00;72966.91;4997480;27;101787;-77
2023/10/21 03:37:07;;;;;;;;;10.00;8.00;;;;;-143.90;100.00;72962.78;5000028;27;101660;-76
2023/10/21 03:39:34;;;;;;;;;12.00;11.00;;;;;-143.90;100.00;72960.72;4999927;27;102188;-76
2023/10/21 03:42:00;;;;;;;;;10.50;9.75;;;;;-143.90;100.00;72964.84;4995357;28;103387;-77
2023/10/21 03:44:28;;;;;;;;;9.75;7.00;;;;;-143.90;100.00;72960.72;5002634;27;102101;-77
2023/10/21 03:46:55;;;;;;;;;19.75;16.00;;;;;-143.90;100.00;72968.97;5001024;27;101835;-76
2023/10/21 03:49:21;;;;;;;;;15.50;12.25;;;;;-143.90;100.00;72975.19;5006450;27;101532;-76
2023/10/21 03:51:48;;;;;;;;;12.25;10.00;;;;;-143.90;100.00;72981.38;4999020;27;103406;-76
2023/10/21 03:54:15;;;;;;;;;15.00;14.25;;;;;-143.90;100.00;73010.31;4998040;28;102693;-77
2023/10/21 03:56:41;;;;;;;;;17.75;13.75;;;;;-143.90;100.00;73014.44;5000208;28;101883;-77
2023/10/21 03:59:08;;;;;;;;;18.75;14.50;;;;;-143.90;100.00;73014.44;4994313;28;102242;-76
2023/10/21 04:01:35;;;;;;;;;14.25;11.75;;;;;-143.90;100.00;73014.44;5001996;27;103475;-76
2023/10/21 04:04:01;;;;;;;;;10.75;9.00;;;;;-143.90;100.00;73012.38;4997136;28;101646;-75
2023/10/21 04:06:28;;;;;;;;;8.25;6.75;;;;;-143.90;100.00;73020.63;4996902;27;102182;-77
2023/10/21 04:08:54;;;;;;;;;21.75;20.25;;;;;-143.90;100.00;73047.50;5001062;27;101504;-77
2023/10/21 04:11:21;;;;;;;;;16.00;15.50;;;;;-143.90;100.00;73047.50;4995477;27;103490;-78
2023/10/21 04:13:48;;;;;;;;;13.50;11.00;;;;;-143.90;100.00;73047.50;4998324;27;101694;-77
2023/10/21 04:16:14;;;;;;;;;13.50;9.00;;;;;-143.90;100.00;73043.38;4995997;27;102096;-77
2023/10/21 04:18:41;;;;;;;;;18.00;15.00;;;;;-143.90;100.00;73051.63;4998648;27;101779;-78
2023/10/21 04:21:08;;;;;;;;;17.00;14.75;;;;;-143.90;100.00;73061.97;4994208;27;103550;-77
2023/10/21 04:23:36;;;;;;;;;15.50;13.00;;;;;-143.90;100.00;73064.03;4999097;27;101944;-77
2023/10/21 04:26:04;;;;;;;;;19.50;15.75;;;;;-143.90;100.00;73080.56;4994655;27;102010;-76
2023/10/21 04:28:31;;;;;;;;;16.75;15.75;;;;;-143.90;100.00;73088.81;4980845;27;101875;-76
2023/10/21 04:30:58;;;;;;;;;12.75;11.00;;;;;-143.90;100.00;73088.81;4992363;28;103699;-77
2023/10/21 04:33:25;;;;;;;;;20.00;17.00;;;;;-143.90;100.00;73084.69;4996038;27;101454;-76
2023/10/21 04:35:52;;;;;;;;;19.00;15.00;;;;;-143.90;100.00;73076.44;4994067;27;101828;-77
2023/10/21 04:38:19;;;;;;;;;10.75;10.00;;;;;-143.90;100.00;73072.28;4992826;27;106709;-77
2023/10/21 04:40:46;;;;;;;;;14.25;11.75;;;;;-143.90;100.00;73076.44;4996687;28;103121;-77
2023/10/21 04:43:12;;;;;;;;;11.75;9.50;;;;;-143.90;100.00;73084.69;4990246;28;102600;-78
2023/10/21 04:45:39;;;;;;;;;9.75;9.25;;;;;-143.90;100.00;73086.75;5000034;27;101440;-77
2023/10/21 04:48:06;;;;;;;;;9.25;8.00;;;;;-143.90;100.00;73095.03;5000310;28;101802;-76
2023/10/21 04:50:33;;;;;;;;;13.00;11.00;;;;;-143.90;100.00;73099.16;4997333;27;105525;-76
2023/10/21 04:52:59;;;;;;;;;12.00;10.50;;;;;-143.90;100.00;73101.22;5000983;28;102092;-75
2023/10/21 04:55:26;;;;;;;;;9.75;8.50;;;;;-143.90;100.00;73105.34;4982175;27;101981;-77
2023/10/21 04:57:53;;;;;;;;;11.00;10.50;;;;;-143.90;100.00;73109.50;4999902;27;101803;-77
2023/10/21 05:00:19;;;;;;;;;15.25;14.00;;;;;-143.90;100.00;73103.28;4996982;28;103617;-77
2023/10/21 05:02:46;;;;;;;;;11.25;11.00;;;;;-143.90;100.00;73105.34;5004644;27;101413;-77
2023/10/21 05:05:13;;;;;;;;;11.25;10.25;;;;;-143.90;100.00;73111.56;4994479;28;101863;-78
2023/10/21 05:07:39;;;;;;;;;12.75;10.50;;;;;-143.90;100.00;73111.56;5000934;27;102059;-76
2023/10/21 05:10:06;;;;;;;;;15.25;12.75;;;;;-143.90;100.00;73126.03;4996111;27;103420;-76
2023/10/21 05:12:34;;;;;;;;;11.25;9.00;;;;;-143.90;100.00;73134.28;4997625;27;101900;-76
2023/10/21 05:15:01;;;;;;;;;7.75;6.75;;;;;-143.90;100.00;73130.16;4995382;27;101432;-76
2023/10/21 05:17:28;;;;;;;;;7.00;6.00;;;;;-143.90;100.00;73138.41;4994786;27;102307;-75
2023/10/21 05:19:55;;;;;;;;;6.75;6.00;;;;;-143.90;100.00;73140.47;5002652;27;108042;-76
2023/10/21 05:22:21;;;;;;;;;9.00;7.00;;;;;-143.90;100.00;73150.81;4995097;28;101839;-76
2023/10/21 05:24:48;;;;;;;;;10.00;8.75;;;;;-143.90;100.00;73154.94;4999194;28;101896;-76
2023/10/21 05:27:15;;;;;;;;;10.75;9.00;;;;;-143.90;100.00;73163.22;4997751;28;102109;-76
2023/10/21 05:29:42;;;;;;;;;6.75;6.25;;;;;-143.90;100.00;73175.63;4995101;27;103414;-75
2023/10/21 05:32:09;;;;;;;;;5.00;5.00;;;;;-143.90;100.00;73173.53;4998721;28;101837;-77
2023/10/21 05:34:35;;;;;;;;;7.50;7.00;;;;;-143.90;100.00;73185.94;4997913;28;101669;-77
2023/10/21 05:37:03;;;;;;;;;5.50;5.50;;;;;-143.90;100.00;73177.69;4997246;27;101844;-77
2023/10/21 05:39:29;;;;;;;;;7.50;7.00;;;;;-143.90;100.00;73192.16;4993999;27;103494;-76
2023/10/21 05:41:56;;;;;;;;;5.00;5.00;;;;;-143.90;100.00;73204.53;4997587;27;101948;-77
2023/10/21 05:44:22;;;;;;;;;5.25;4.75;;;;;-143.90;100.00;73198.34;4995630;28;101477;-76
2023/10/21 05:47:09;;;;;;;;;4.25;4.00;;;;;-143.90;100.00;73190.06;4998585;27;101652;-77
2023/10/21 05:49:35;;;;;;;;;5.25;4.75;;;;;-143.90;100.00;73167.34;4997564;28;103696;-77
2023/10/21 05:52:02;;;;;;;;;6.50;5.75;;;;;-143.90;100.00;73161.16;4997092;28;101773;-76
2023/10/21 05:54:32;;;;;;;;;4.00;3.50;;;;;-143.90;100.00;73150.81;4996806;27;101840;-76
2023/10/21 05:56:58;;;;;;;;;6.00;5.00;;;;;-143.90;100.00;73138.41;4993014;28;102027;-75
2023/10/21 05:59:25;;;;;;;;;5.00;4.00;;;;;-143.90;100.00;73138.41;5001112;27;107826;-77
2023/10/21 06:01:52;;;;;;;;;5.75;5.75;;;;;-143.90;100.00;73128.09;4992962;28;101884;-77
2023/10/21 06:04:18;;;;;;;;;6.50;6.00;;;;;-143.90;100.00;73113.63;4997703;28;101542;-76
2023/10/21 06:06:45;;;;;;;;;7.25;7.00;;;;;-143.90;100.00;73105.34;4997333;27;101684;-76
2023/10/21 06:09:12;;;;;;;;;12.75;11.25;;;;;-143.90;100.00;73101.22;4995762;27;103157;-77
2023/10/21 06:11:39;;;;;;;;;19.75;16.50;;;;;-143.90;100.00;73117.75;4995649;27;103331;-77
2023/10/21 06:14:06;;;;;;;;;12.75;12.00;;;;;-143.90;100.00;73121.88;4993624;27;101898;-76
2023/10/21 06:16:33;;;;;;;;;12.25;9.50;;;;;-143.90;100.00;73109.50;4995819;27;102033;-76
2023/10/21 06:19:00;;;;;;;;;9.00;8.33;;;;;-143.90;100.00;73101.22;4996414;27;103483;-77
2023/10/21 06:21:26;;;;;;;;;6.75;6.00;;;;;-143.90;100.00;73109.50;4985436;27;102601;-76
2023/10/21 06:23:53;;;;;;;;;6.00;5.00;;;;;-143.90;100.00;73105.34;4991783;27;101503;-76
2023/10/21 06:26:20;;;;;;;;;5.33;4.00;;;;;-143.90;100.00;73101.22;4998656;28;101614;-76
2023/10/21 06:28:46;;;;;;;;;0.67;0.67;;;;;-143.90;100.00;73103.28;4993845;28;103553;-76
2023/10/21 06:31:13;;;;;;;;;4.00;3.67;;;;;-143.90;100.00;73109.50;4994604;28;101523;-76
2023/10/21 06:33:39;;;;;;;;;1.00;1.00;;;;;-143.90;100.00;73107.41;4998835;28;101700;-77
2023/10/21 06:36:06;;;;;;;;;3.00;2.33;;;;;-143.90;100.00;73107.41;4999051;28;102086;-76
2023/10/21 06:38:34;;;;;;;;;3.67;3.00;;;;;-143.90;100.00;73101.22;5000090;27;103814;-76
2023/10/21 06:41:02;;;;;;;;;2.00;2.00;;;;;-143.90;100.00;73095.03;4993065;27;102428;-76
2023/10/21 06:43:40;;;;;;;;;2.33;2.00;;;;;-143.90;100.00;73090.91;4997852;27;101636;-75
2023/10/21 06:46:07;;;;;;;;;2.00;2.00;;;;;-143.90;100.00;73084.69;4997361;28;101966;-76
2023/10/21 06:48:34;;;;;;;;;2.33;2.33;;;;;-143.90;100.00;73080.56;5002193;27;103595;-76
2023/10/21 06:51:01;;;;;;;;;2.00;2.00;;;;;-143.90;100.00;73084.69;4997087;27;101989;-75
2023/10/21 06:53:27;;;;;;;;;3.00;3.00;;;;;-143.90;100.00;73076.44;5001538;27;102053;-76
2023/10/21 06:55:54;;;;;;;;;2.33;2.33;;;;;-143.90;100.00;73070.22;4996456;27;101729;-77
2023/10/21 06:58:20;;;;;;;;;2.00;2.00;;;;;-143.90;100.00;73055.75;4998415;28;103420;-76
2023/10/21 07:00:47;;;;;;;;;3.67;2.33;;;;;-143.90;100.00;73053.69;5001955;27;101830;-76
2023/10/21 07:03:14;;;;;;;;;2.33;2.00;;;;;-143.90;100.00;73047.50;4998311;27;101794;-76
2023/10/21 07:05:41;;;;;;;;;4.67;2.33;;;;;-143.90;100.00;73047.50;5004570;27;101904;-78
2023/10/21 07:08:07;;;;;;;;;6.00;4.33;;;;;-143.90;100.00;73039.22;4996291;28;103350;-77
2023/10/21 07:10:34;;;;;;;;;6.67;5.00;;;;;-143.90;100.00;73039.22;4999754;28;102135;-76
2023/10/21 07:13:02;;;;;;;;;6.00;6.00;;;;;-143.90;100.00;73030.97;4997629;27;101754;-75
2023/10/21 07:15:29;;;;;;;;;4.67;4.00;;;;;-143.90;100.00;73022.69;5001147;27;101525;-75
2023/10/21 07:17:57;;;;;;;;;6.00;6.00;;;;;-143.90;100.00;73022.69;4999611;28;107952;-76
2023/10/21 07:20:26;;;;;;;;;5.33;4.33;;;;;-143.90;100.00;73028.91;5000455;27;102075;-77
2023/10/21 07:22:53;;;;;;;;;5.33;5.00;;;;;-143.90;99.50;73026.84;4999966;28;101754;-77
2023/10/21 07:25:20;;;;;;;;;4.00;3.33;;;;;-143.90;99.91;73030.97;4994768;28;106279;-78
2023/10/21 07:27:47;;;;;;;;;7.67;6.33;;;;;-143.90;99.63;73030.97;4996195;28;103579;-76
2023/10/21 07:30:14;;;;;;;;;7.00;6.00;;;;;-143.90;99.37;73024.78;4995547;28;102503;-76
2023/10/21 07:32:41;;;;;;;;;6.00;5.00;;;;;-143.90;98.92;73022.69;4984032;27;102557;-77
2023/10/21 07:35:09;;;;;;;;;7.00;6.00;;;;;-143.90;98.97;73016.50;5000365;27;101826;-77
2023/10/21 07:37:37;;;;;;;;;6.00;5.00;;;;;-143.90;99.13;73002.03;4995266;27;103426;-77
2023/10/21 07:40:05;;;;;;;;;5.67;5.00;;;;;-143.90;99.39;72993.78;4997085;27;101645;-76
2023/10/21 07:42:32;;;;;;;;;4.67;4.67;;;;;-143.90;99.04;72997.91;4995555;27;101786;-77
2023/10/21 07:44:59;;;;;;;;;5.00;5.00;;;;;-143.90;97.97;72999.97;5000824;27;101924;-75
2023/10/21 07:47:26;;;;;;;;;4.33;3.00;;;;;-143.90;97.85;72993.78;4996911;27;103519;-77
2023/10/21 07:49:53;;;;;;;;;6.67;5.67;;;;;-143.90;98.20;72989.66;5001509;27;102087;-78
2023/10/21 07:52:22;;;;;;;;;6.33;5.00;;;;;-143.90;97.60;72997.91;4996665;27;101567;-78
2023/10/21 07:54:49;;;;;;;;;6.00;6.00;;;;;-143.90;96.30;72989.66;4998885;28;101915;-78
2023/10/21 07:57:15;;;;;;;;;6.67;5.00;;;;;-143.90;95.48;72981.38;4996956;28;103331;-77
2023/10/21 07:59:43;;;;;;;;;7.67;7.00;;;;;-143.90;94.98;72973.13;5000868;27;102156;-77
2023/10/21 08:02:10;;;;;;;;;7.00;7.00;;;;;-143.90;93.84;72975.19;5001361;27;101543;-78
2023/10/21 08:04:36;;;;;;;;;7.00;7.00;;;;;-143.90;93.79;72964.84;5000704;28;101733;-77
2023/10/21 08:07:03;;;;;;;;;9.67;8.33;;;;;-143.90;93.39;72960.72;4999636;28;105716;-77
2023/10/21 08:09:30;;;;;;;;;8.00;7.33;;;;;-143.90;93.15;72954.50;4996249;27;102052;-76
2023/10/21 08:11:57;;;;;;;;;7.00;7.00;;;;;-143.90;92.42;72956.59;5002280;27;101967;-77
2023/10/21 08:14:27;;;;;;;;;6.33;6.00;;;;;-143.90;90.76;72952.44;4993316;28;101857;-77
2023/10/21 08:16:53;;;;;;;;;9.67;7.00;;;;;-143.90;91.23;72960.72;5002585;27;103412;-77
2023/10/21 08:19:20;;;;;;;;;11.33;8.67;;;;;-143.90;90.92;72964.84;4998259;27;102658;-77
2023/10/21 08:21:47;;;;;;;;;11.33;9.00;;;;;-143.90;89.39;72973.13;5001605;28;101854;-78
2023/10/21 08:24:13;;;;;;;;;8.00;6.67;;;;;-143.90;91.24;72973.13;4996193;28;101772;-77
2023/10/21 08:26:40;;;;;;;;;7.33;5.33;;;;;-143.90;90.40;72962.78;4992972;28;102740;-77
2023/10/21 08:29:10;;;;;;;;;8.33;7.00;;;;;-143.90;90.06;72962.78;5000714;27;101522;-76
2023/10/21 08:31:37;;;;;;;;;13.67;7.67;;;;;-143.90;88.86;72968.97;4993353;28;102932;-77
2023/10/21 08:34:05;;;;;;;;;8.00;7.00;;;;;-143.90;89.16;72964.84;5000593;28;101740;-77
2023/10/21 08:36:32;;;;;;;;;8.33;6.67;;;;;-143.90;89.65;72960.72;4986103;27;103443;-77
2023/10/21 08:38:58;;;;;;;;;3.67;3.67;;;;;-143.90;87.28;72958.66;5002173;27;101803;-77
2023/10/21 08:41:34;;;;;;;;;7.00;5.67;;;;;-143.90;86.85;72960.72;4995438;27;101669;-78
2023/10/21 08:44:01;;;;;;;;;6.00;5.00;;;;;-143.90;87.11;72962.78;4995990;27;101911;-76
2023/10/21 08:46:30;;;;;;;;;8.00;7.00;;;;;-143.90;87.16;72956.59;5004145;27;103521;-78
2023/10/21 08:48:58;;;;;;;;;5.00;5.00;;;;;-143.90;86.09;72948.31;4975481;27;101921;-77
2023/10/21 08:51:26;;;;;;;;;5.00;4.00;;;;;-143.90;86.98;72940.06;5002214;27;101996;-76
2023/10/21 08:53:54;;;;;;;;;6.67;6.00;;;;;-143.90;85.87;72935.91;4996745;28;101916;-78
2023/10/21 08:56:22;;;;;;;;;4.33;4.33;;;;;-143.90;86.40;72923.53;4999528;27;103384;-77
2023/10/21 08:58:48;;;;;;;;;8.33;6.00;;;;;-143.90;85.99;72935.91;4994400;27;101438;-76
2023/10/21 09:01:15;;;;;;;;;5.33;4.00;;;;;-143.90;85.70;72915.25;5001711;28;101687;-76
2023/10/21 09:03:42;;;;;;;;;5.67;4.67;;;;;-143.90;84.75;72904.94;4993934;27;101998;-77
2023/10/21 09:06:10;;;;;;;;;4.67;3.67;;;;;-143.90;84.85;72878.06;4994505;28;103346;-76
2023/10/21 09:08:42;;;;;;;;;7.00;5.67;;;;;-143.90;82.52;72865.66;5000594;27;101766;-78
2023/10/21 09:11:13;;;;;;;;;4.33;3.00;;;;;-143.90;80.46;72853.28;4995679;28;101709;-77
2023/10/21 09:13:41;;;;;;;;;6.67;6.00;;;;;-143.90;79.83;72849.13;5005678;27;101702;-78
2023/10/21 09:16:21;;;;;;;;;5.33;4.33;;;;;-143.90;78.99;72857.41;4994537;27;103526;-75
2023/10/21 09:19:04;;;;;;;;;5.00;3.50;;;;;-143.90;79.70;72869.81;3394865;27;10096883;-77
2023/10/21 09:21:40;;;;;;;;;5.00;4.00;;;;;-143.90;80.60;72884.25;4110623;27;10062474;-78
2023/10/21 09:24:10;;;;;;;;;6.67;4.67;;;;;-143.90;81.25;72911.13;4998796;28;102659;-77
2023/10/21 09:26:48;;;;;;;;;10.00;9.00;;;;;-143.90;82.93;72915.25;4998836;27;102157;-78
2023/10/21 09:29:18;;;;;;;;;10.00;9.67;;;;;-143.90;84.05;72925.59;4996296;27;103387;-78
2023/10/21 09:31:55;;;;;;;;;8.67;7.00;;;;;-143.90;85.20;72927.66;4999724;27;101596;-79
2023/10/21 09:34:30;;;;;;;;;11.00;10.00;;;;;-143.90;85.70;72940.06;4992409;27;102006;-79
2023/10/21 09:37:01;;;;;;;;;16.33;12.00;;;;;-143.90;85.23;72950.38;5001381;28;101914;-78
2023/10/21 09:39:33;;;;;;;;;10.00;9.00;;;;;-143.90;85.45;72927.66;4993124;28;107765;-78
2023/10/21 09:42:02;;;;;;;;;5.00;5.00;;;;;-143.90;84.48;72923.53;4982236;28;101622;-78
2023/10/21 09:44:30;;;;;;;;;9.33;8.00;;;;;-143.90;83.27;72923.53;4993474;28;102139;-75
2023/10/21 09:46:58;;;;;;;;;6.00;5.33;;;;;-143.90;82.02;72911.13;4991090;28;102862;-80
2023/10/21 09:49:27;;;;;;;;;8.33;6.67;;;;;-143.90;83.05;72900.78;4996377;28;107924;-77
2023/10/21 09:52:04;;;;;;;;;8.33;7.00;;;;;-143.90;82.26;72857.41;4976603;28;101921;-77
2023/10/21 09:54:42;;;;;;;;;6.33;4.67;;;;;-143.90;81.14;72809.88;4995243;28;102647;-77
2023/10/21 09:57:11;;;;;;;;;3.33;2.67;;;;;-143.90;75.34;72826.41;5000724;27;101519;-77
2023/10/21 09:59:39;;;;;;;;;5.00;3.00;;;;;-143.90;75.71;72826.41;4995963;27;103657;-76
2023/10/21 10:02:09;;;;;;;;;3.00;2.67;;;;;-143.90;75.06;72824.34;4991648;27;101702;-78
2023/10/21 10:04:38;;;;;;;;;2.67;1.67;;;;;-143.90;73.86;72799.56;4991237;27;101917;-77
2023/10/21 10:07:08;;;;;;;;;2.00;1.67;;;;;-143.90;74.04;72797.47;4990284;28;101508;-77
2023/10/21 10:09:45;;;;;;;;;4.00;3.00;;;;;-143.90;73.24;72778.88;4993473;27;103518;-78
2023/10/21 10:12:23;;;;;;;;;4.00;2.00;;;;;-143.90;73.03;72770.63;4986972;28;101927;-77
2023/10/21 10:14:50;;;;;;;;;2.00;2.00;;;;;-143.90;71.78;72758.22;4992554;28;103158;-76
2023/10/21 10:17:50;;;;;;;;;4.00;3.00;;;;;-143.90;69.63;72770.63;4994430;28;102634;-79
2023/10/21 10:20:19;;;;;;;;;3.00;2.67;;;;;-143.90;69.46;72766.50;4994149;28;108229;-77
2023/10/21 10:23:08;;;;;;;;;1.67;1.67;;;;;-143.90;69.77;72762.34;4995060;28;101530;-75
2023/10/21 10:25:42;;;;;;;;;2.00;1.00;;;;;-143.90;68.50;72762.34;4968012;27;101792;-77
2023/10/21 10:28:17;;;;;;;;;2.67;2.00;;;;;-143.90;66.97;72787.16;4998049;27;101786;-77
2023/10/21 10:30:45;;;;;;;;;2.00;1.00;;;;;-143.90;66.68;72783.03;4995296;27;103546;-77
2023/10/21 10:33:16;;;;;;;;;1.00;1.00;;;;;-143.90;67.66;72778.88;4999078;27;101958;-77
2023/10/21 10:35:46;;;;;;;;;2.00;1.00;;;;;-143.90;66.81;72783.03;4992819;27;101699;-76
2023/10/21 10:38:25;;;;;;;;;2.67;2.00;;;;;-143.90;67.17;72787.16;5000275;28;101852;-79
2023/10/21 10:41:15;;;;;;;;;1.00;0.33;;;;;-143.90;65.17;72787.16;4990776;28;103325;-76
2023/10/21 10:43:46;;;;;;;;;1.00;1.00;;;;;-143.90;65.26;72778.88;4995922;28;101803;-77
2023/10/21 10:46:20;;;;;;;;;3.00;2.00;;;;;-143.90;65.45;72799.56;4994703;27;101671;-78
2023/10/21 10:48:47;;;;;;;;;3.00;2.00;;;;;-143.90;65.20;72811.94;4997252;27;101568;-78
2023/10/21 10:51:15;;;;;;;;;1.67;1.00;;;;;-143.90;66.19;72828.47;4991891;27;103535;-75
2023/10/21 10:53:47;;;;;;;;;2.67;2.33;;;;;-143.90;66.73;72834.69;4989391;27;101673;-77
2023/10/21 10:56:18;;;;;;;;;2.00;2.00;;;;;-143.90;67.10;72824.34;4995549;28;101655;-77
2023/10/21 10:58:47;;;;;;;;;3.00;1.67;;;;;-143.90;66.84;72811.94;4994930;27;101603;-78
2023/10/21 11:01:25;;;;;;;;;2.00;0.00;;;;;-143.90;66.68;72816.06;4995799;27;103374;-77
2023/10/21 11:04:00;;;;;;;;;3.00;2.33;;;;;-143.90;68.14;72811.94;4993282;28;101489;-77
2023/10/21 11:06:31;;;;;;;;;2.33;2.00;;;;;-143.90;67.83;72809.88;4994176;28;101874;-77